createdAt,value
2022-12-08T00:14:05.310Z,2.5
2022-12-08T00:29:05.336Z,2.5
2022-12-08T00:44:05.341Z,2.4
2022-12-08T00:59:05.317Z,2.3
2022-12-08T01:14:05.321Z,2.3
2022-12-08T01:29:05.308Z,2.2
2022-12-08T01:44:05.294Z,2.1
2022-12-08T01:59:05.296Z,2.1
2022-12-08T02:14:05.255Z,2
2022-12-08T02:29:05.284Z,2
2022-12-08T02:44:05.227Z,1.9
2022-12-08T02:59:05.263Z,1.9
2022-12-08T03:14:05.234Z,1.9
2022-12-08T03:29:05.258Z,1.8
2022-12-08T03:44:05.190Z,1.8
2022-12-08T03:59:05.230Z,1.8
2022-12-08T04:14:05.190Z,1.7
2022-12-08T04:29:05.233Z,1.6
2022-12-08T04:44:05.183Z,1.6
2022-12-08T04:59:05.152Z,1.6
2022-12-08T05:14:05.142Z,1.4
2022-12-08T05:29:05.143Z,1.4
2022-12-08T05:44:05.131Z,1.3
2022-12-08T05:59:05.152Z,1.2
2022-12-08T06:14:05.131Z,1.1
2022-12-08T06:29:05.126Z,1
2022-12-08T06:44:05.116Z,0.8
2022-12-08T06:59:05.145Z,0.6
2022-12-08T07:14:05.095Z,0.4
2022-12-08T07:29:05.137Z,0.3
2022-12-08T07:44:05.101Z,0.1
2022-12-08T07:59:05.119Z,0.9
2022-12-08T08:14:05.075Z,2.3
2022-12-08T08:29:05.093Z,2
2022-12-08T08:44:05.060Z,1.9
2022-12-08T08:59:05.111Z,1.9
2022-12-08T09:14:05.071Z,2
2022-12-08T09:29:05.069Z,2.5
2022-12-08T09:44:05.055Z,5.8
2022-12-08T09:59:05.030Z,7.6
2022-12-08T10:14:05.027Z,7.9
2022-12-08T10:29:05.019Z,6.4
2022-12-08T10:44:04.964Z,5.3
2022-12-08T10:59:04.979Z,4.6
2022-12-08T11:14:04.944Z,4.3
2022-12-08T11:44:04.967Z,4.6
2022-12-08T11:59:04.914Z,4.9
2022-12-08T12:14:04.916Z,4.8
2022-12-08T12:29:04.930Z,5.3
2022-12-08T12:44:04.883Z,5
2022-12-08T12:59:04.879Z,4.7
2022-12-08T13:14:04.864Z,4.5
2022-12-08T13:29:04.872Z,4.2
2022-12-08T13:44:56.777Z,4.2
2022-12-08T13:59:04.825Z,4.3
2022-12-08T14:14:04.858Z,4.2
2022-12-08T14:29:04.903Z,4.1
2022-12-08T14:44:04.836Z,4.1
2022-12-08T14:59:04.797Z,4
2022-12-08T15:14:04.799Z,3.9
2022-12-08T15:29:04.799Z,3.9
2022-12-08T15:44:04.806Z,3.7
2022-12-08T15:59:04.769Z,3.6
2022-12-08T16:14:47.162Z,3.6
2022-12-08T16:29:04.769Z,3.6
2022-12-08T16:44:04.712Z,3.6
2022-12-08T16:59:04.731Z,3.6
2022-12-08T17:14:04.698Z,3.6
2022-12-08T17:29:04.723Z,3.6
2022-12-08T17:44:04.671Z,3.5
2022-12-08T17:59:04.693Z,3.5
2022-12-08T18:14:04.661Z,3.5
2022-12-08T18:29:04.680Z,3.4
2022-12-08T18:44:04.646Z,3.4
2022-12-08T18:59:04.641Z,3.3
2022-12-08T19:14:04.628Z,3.3
2022-12-08T19:29:04.622Z,3.2
2022-12-08T19:44:04.603Z,3.1
2022-12-08T19:59:04.589Z,3.1
2022-12-08T20:14:04.585Z,3.1
2022-12-08T20:44:04.557Z,3.2
2022-12-08T20:59:04.630Z,3.1
2022-12-08T21:14:04.584Z,3
2022-12-08T21:29:04.596Z,2.7
2022-12-08T21:44:04.547Z,2.5
2022-12-08T21:59:04.609Z,2.4
2022-12-08T22:14:08.268Z,2.3
2022-12-08T22:29:04.520Z,2.1
2022-12-08T22:44:04.495Z,2
2022-12-08T22:59:04.513Z,1.9
2022-12-08T23:14:04.476Z,1.9
2022-12-08T23:29:04.555Z,1.9
2022-12-08T23:44:04.652Z,1.9
2022-12-08T23:59:04.664Z,2
